createdAt,value
2019-03-16T00:01:14.738Z,6.20
2019-03-16T00:06:21.193Z,6.20
2019-03-16T00:11:27.655Z,6.10
2019-03-16T00:16:34.208Z,6.10
2019-03-16T00:21:40.678Z,6.10
2019-03-16T00:26:47.237Z,6.00
2019-03-16T00:31:53.848Z,6.00
2019-03-16T00:37:00.712Z,6.00
2019-03-16T00:42:07.333Z,6.00
2019-03-16T00:47:13.867Z,6.00
2019-03-16T00:52:20.357Z,6.00
2019-03-16T00:57:26.922Z,6.00
2019-03-16T01:02:33.556Z,5.90
2019-03-16T01:07:40.153Z,5.90
2019-03-16T01:12:46.760Z,5.90
2019-03-16T01:17:53.395Z,5.90
2019-03-16T01:22:59.943Z,5.80
2019-03-16T01:28:07.627Z,5.80
2019-03-16T01:33:14.238Z,5.80
2019-03-16T01:38:20.867Z,5.70
2019-03-16T01:43:27.410Z,5.70
2019-03-16T01:48:33.937Z,5.70
2019-03-16T01:53:40.484Z,5.80
2019-03-16T01:58:46.966Z,5.80
2019-03-16T02:03:53.501Z,5.90
2019-03-16T02:08:59.955Z,5.90
2019-03-16T02:14:06.578Z,5.90
2019-03-16T02:19:13.163Z,5.90
2019-03-16T02:24:19.791Z,5.90
2019-03-16T02:29:26.249Z,5.90
2019-03-16T02:34:32.874Z,5.90
2019-03-16T02:39:39.334Z,5.90
2019-03-16T02:44:45.900Z,6.00
2019-03-16T02:49:52.392Z,5.90
2019-03-16T02:54:58.870Z,5.90
2019-03-16T03:00:08.456Z,5.90
2019-03-16T03:05:15.101Z,6.00
2019-03-16T03:10:21.633Z,6.00
2019-03-16T03:15:28.173Z,6.00
2019-03-16T03:20:34.742Z,6.00
2019-03-16T03:25:41.221Z,6.00
2019-03-16T03:30:47.853Z,6.00
2019-03-16T03:35:54.496Z,6.00
2019-03-16T03:41:02.005Z,6.00
2019-03-16T03:46:08.831Z,6.00
2019-03-16T03:51:15.381Z,5.90
2019-03-16T03:56:21.938Z,6.00
2019-03-16T04:01:28.570Z,6.00
2019-03-16T04:06:35.291Z,6.00
2019-03-16T04:11:41.917Z,6.00
2019-03-16T04:16:48.574Z,6.00
2019-03-16T04:21:55.281Z,6.10
2019-03-16T04:27:14.935Z,6.10
2019-03-16T04:32:09.974Z,6.00
2019-03-16T04:37:16.517Z,6.00
2019-03-16T04:42:23.138Z,6.00
2019-03-16T04:47:29.600Z,6.00
2019-03-16T04:52:36.005Z,6.00
2019-03-16T04:57:42.646Z,6.00
2019-03-16T05:02:49.281Z,6.00
2019-03-16T05:07:55.844Z,6.00
2019-03-16T05:13:02.379Z,6.00
2019-03-16T05:18:08.793Z,5.90
2019-03-16T05:23:15.347Z,6.00
2019-03-16T05:28:21.908Z,5.90
2019-03-16T05:33:28.324Z,5.90
2019-03-16T05:38:35.968Z,5.90
2019-03-16T05:43:42.433Z,6.00
2019-03-16T05:48:48.925Z,6.00
2019-03-16T05:53:55.316Z,6.00
2019-03-16T05:59:01.875Z,5.90
2019-03-16T06:04:08.435Z,6.00
2019-03-16T06:09:15.040Z,6.00
2019-03-16T06:14:21.523Z,6.10
2019-03-16T06:19:28.088Z,6.10
2019-03-16T06:24:34.552Z,6.00
2019-03-16T06:29:41.009Z,6.10
2019-03-16T06:34:47.661Z,6.10
2019-03-16T06:39:54.084Z,6.10
2019-03-16T06:45:00.629Z,6.10
2019-03-16T06:50:08.886Z,6.20
2019-03-16T06:55:15.508Z,6.20
2019-03-16T07:00:22.628Z,6.20
2019-03-16T07:05:38.099Z,6.20
2019-03-16T07:10:39.493Z,6.20
2019-03-16T07:15:46.115Z,6.20
2019-03-16T07:20:53.341Z,6.20
2019-03-16T07:26:13.698Z,6.30
2019-03-16T07:31:08.467Z,6.20
2019-03-16T07:36:14.835Z,6.20
2019-03-16T07:41:21.401Z,6.10
2019-03-16T07:46:28.914Z,6.10
2019-03-16T07:51:35.714Z,6.10
2019-03-16T07:56:42.437Z,6.00
2019-03-16T08:01:49.005Z,6.00
2019-03-16T08:06:55.701Z,6.00
2019-03-16T08:12:03.305Z,5.90
2019-03-16T08:17:12.225Z,5.80
2019-03-16T08:22:18.693Z,5.70
2019-03-16T08:27:25.157Z,5.60
2019-03-16T08:32:31.818Z,5.60
2019-03-16T08:37:38.353Z,5.60
2019-03-16T08:42:44.878Z,5.60
2019-03-16T08:47:51.423Z,5.70
2019-03-16T08:52:57.984Z,5.70
2019-03-16T08:58:06.266Z,5.70
2019-03-16T09:03:14.031Z,5.60
2019-03-16T09:08:20.429Z,5.60
2019-03-16T09:13:27.022Z,5.60
2019-03-16T09:18:33.546Z,5.70
2019-03-16T09:23:40.135Z,5.70
2019-03-16T09:28:46.818Z,5.80
2019-03-16T09:33:53.348Z,5.80
2019-03-16T09:38:59.976Z,6.00
2019-03-16T09:44:06.872Z,6.10
2019-03-16T09:49:13.250Z,6.20
2019-03-16T09:54:19.630Z,6.30
2019-03-16T09:59:26.257Z,6.40
2019-03-16T10:04:32.670Z,6.60
2019-03-16T10:09:39.208Z,6.60
2019-03-16T10:14:45.782Z,6.70
2019-03-16T10:19:52.492Z,6.70
2019-03-16T10:24:59.046Z,6.70
2019-03-16T10:30:07.102Z,6.70
2019-03-16T10:35:13.714Z,6.70
2019-03-16T10:40:20.262Z,6.80
2019-03-16T10:45:26.873Z,6.80
2019-03-16T10:50:33.397Z,6.90
2019-03-16T10:55:40.160Z,7.00
2019-03-16T11:00:46.627Z,7.00
2019-03-16T11:05:53.170Z,7.20
2019-03-16T11:10:59.645Z,7.30
2019-03-16T11:16:10.784Z,7.40
2019-03-16T11:21:17.456Z,7.40
2019-03-16T11:26:24.162Z,7.40
2019-03-16T11:31:30.765Z,7.40
2019-03-16T11:36:37.304Z,7.40
2019-03-16T11:41:43.684Z,7.50
2019-03-16T11:46:50.286Z,7.70
2019-03-16T11:51:56.793Z,7.90
2019-03-16T11:57:03.647Z,8.00
2019-03-16T12:02:10.330Z,7.90
2019-03-16T12:07:16.835Z,7.90
2019-03-16T12:12:23.507Z,8.00
2019-03-16T12:17:30.151Z,8.40
2019-03-16T12:22:36.761Z,8.90
2019-03-16T12:27:43.368Z,9.20
2019-03-16T12:32:49.909Z,9.30
2019-03-16T12:37:56.512Z,9.50
2019-03-16T12:43:03.048Z,9.60
2019-03-16T12:48:09.748Z,9.70
2019-03-16T12:53:16.314Z,9.70
2019-03-16T12:58:22.900Z,9.70
2019-03-16T13:03:29.562Z,9.80
2019-03-16T13:08:35.942Z,9.80
2019-03-16T13:13:42.532Z,9.80
2019-03-16T13:18:49.298Z,9.90
2019-03-16T13:23:55.860Z,10.00
2019-03-16T13:29:02.322Z,10.00
2019-03-16T13:34:08.987Z,10.10
2019-03-16T13:39:15.502Z,10.10
2019-03-16T13:44:21.979Z,10.20
2019-03-16T13:49:28.521Z,10.40
2019-03-16T13:54:35.155Z,10.40
2019-03-16T14:00:11.235Z,10.30
2019-03-16T14:05:10.428Z,10.30
2019-03-16T14:10:18.515Z,10.30
2019-03-16T14:15:25.104Z,10.30
2019-03-16T14:20:31.687Z,10.30
2019-03-16T14:25:38.572Z,10.20
2019-03-16T14:30:45.451Z,10.30
2019-03-16T14:35:52.173Z,10.20
2019-03-16T14:40:58.727Z,10.10
2019-03-16T14:46:05.363Z,10.10
2019-03-16T14:51:11.919Z,10.10
2019-03-16T14:56:18.628Z,10.10
2019-03-16T15:01:25.279Z,10.10
2019-03-16T15:06:31.817Z,10.10
2019-03-16T15:11:38.441Z,10.10
2019-03-16T15:16:45.036Z,10.20
2019-03-16T15:21:51.718Z,10.30
2019-03-16T15:26:58.264Z,10.20
2019-03-16T15:32:04.816Z,10.10
2019-03-16T15:37:12.371Z,10.10
2019-03-16T15:42:18.917Z,10.00
2019-03-16T15:47:25.399Z,10.00
2019-03-16T15:52:31.987Z,10.00
2019-03-16T15:57:38.624Z,10.00
2019-03-16T16:02:45.189Z,10.00
2019-03-16T16:07:51.731Z,9.90
2019-03-16T16:12:58.294Z,9.90
2019-03-16T16:18:04.977Z,9.80
2019-03-16T16:23:11.581Z,9.70
2019-03-16T16:28:18.322Z,9.70
2019-03-16T16:33:25.936Z,9.70
2019-03-16T16:38:32.543Z,9.70
2019-03-16T16:43:39.056Z,9.60
2019-03-16T16:48:45.671Z,9.60
2019-03-16T16:53:54.065Z,9.60
2019-03-16T16:59:00.705Z,9.60
2019-03-16T17:04:07.338Z,9.60
2019-03-16T17:09:13.964Z,9.60
2019-03-16T17:14:20.750Z,9.60
2019-03-16T17:19:27.325Z,9.50
2019-03-16T17:24:33.895Z,9.40
2019-03-16T17:29:40.481Z,9.50
2019-03-16T17:34:47.044Z,9.50
2019-03-16T17:39:53.499Z,9.40
2019-03-16T17:45:01.118Z,9.40
2019-03-16T17:50:08.548Z,9.40
2019-03-16T17:55:15.454Z,9.40
2019-03-16T18:00:22.085Z,9.40
2019-03-16T18:05:28.618Z,9.40
2019-03-16T18:10:35.241Z,9.30
2019-03-16T18:15:41.702Z,9.30
2019-03-16T18:20:48.276Z,9.30
2019-03-16T18:25:54.841Z,9.20
2019-03-16T18:31:01.424Z,9.20
2019-03-16T18:36:10.240Z,9.20
2019-03-16T18:41:16.324Z,9.20
2019-03-16T18:46:22.832Z,9.20
2019-03-16T18:51:41.749Z,9.20
2019-03-16T18:56:48.419Z,9.20
2019-03-16T19:01:55.443Z,9.20
2019-03-16T19:07:02.143Z,9.20
2019-03-16T19:12:08.849Z,9.20
2019-03-16T19:17:15.504Z,9.20
2019-03-16T19:22:22.072Z,9.10
2019-03-16T19:27:28.609Z,9.10
2019-03-16T19:32:37.627Z,9.10
2019-03-16T19:37:43.317Z,9.10
2019-03-16T19:42:49.943Z,9.00
2019-03-16T19:47:56.496Z,9.00
2019-03-16T19:53:03.066Z,9.00
2019-03-16T19:58:09.714Z,8.90
2019-03-16T20:03:16.274Z,8.90
2019-03-16T20:08:42.010Z,8.90
2019-03-16T20:13:48.581Z,8.90
2019-03-16T20:18:54.998Z,8.90
2019-03-16T20:24:01.407Z,8.90
2019-03-16T20:29:08.168Z,8.80
2019-03-16T20:34:14.799Z,8.80
2019-03-16T20:39:21.407Z,8.80
2019-03-16T20:44:27.977Z,8.70
2019-03-16T20:49:34.452Z,8.70
2019-03-16T20:54:40.927Z,8.70
2019-03-16T20:59:47.402Z,8.70
2019-03-16T21:04:53.963Z,8.70
2019-03-16T21:10:01.443Z,8.70
2019-03-16T21:15:09.365Z,8.70
2019-03-16T21:20:16.746Z,8.60
2019-03-16T21:25:23.311Z,8.60
2019-03-16T21:30:29.856Z,8.60
2019-03-16T21:35:36.475Z,8.60
2019-03-16T21:40:43.009Z,8.50
2019-03-16T21:45:49.475Z,8.50
2019-03-16T21:50:56.007Z,8.50
2019-03-16T21:56:02.480Z,8.40
2019-03-16T22:01:09.116Z,8.40
2019-03-16T22:06:15.732Z,8.30
2019-03-16T22:11:22.212Z,8.20
2019-03-16T22:16:28.685Z,8.00
2019-03-16T22:21:35.351Z,7.80
2019-03-16T22:26:41.889Z,7.70
2019-03-16T22:31:48.441Z,7.60
2019-03-16T22:36:55.000Z,7.50
2019-03-16T22:42:01.547Z,7.40
2019-03-16T22:47:08.112Z,7.30
2019-03-16T22:52:14.743Z,7.20
2019-03-16T22:57:21.214Z,7.10
2019-03-16T23:02:27.841Z,7.10
2019-03-16T23:07:34.386Z,7.00
2019-03-16T23:12:40.920Z,6.90
2019-03-16T23:17:47.492Z,6.80
2019-03-16T23:22:54.110Z,6.60
2019-03-16T23:28:00.651Z,6.50
2019-03-16T23:33:07.248Z,6.40
2019-03-16T23:38:13.862Z,6.30
2019-03-16T23:43:20.238Z,6.20
2019-03-16T23:48:26.812Z,6.20
2019-03-16T23:53:52.466Z,6.20
2019-03-16T23:58:58.940Z,6.20
